KLFI/LFI METAR and TAF weather

Enter ICAO airport designator
Station Type Date Time Source
KLFI METAR 2019/10/21 01:56 UTC NOAA

KLFI 210156Z 36014G22KT 10SM OVC010 15/15 A2981 RMK AO2A PK WND 33026/28 CIG 009 RWY26 SLP101 T01530153 $


Station Type Date Time Source
KLFI Decoded METAR 2019/10/21 01:56 UTC NOAA

Langley Air Force Base, VA, United States (KLFI) 37-05N 076-21W 6M
Oct 20, 2019 - 09:56 PM EDT / 2019.10.21 0156 UTC
Wind: from the N (360 degrees) at 16 MPH (14 KT) gusting to 25 MPH (22 KT):0
Visibility: 10 mile(s):0
Sky conditions: overcast
Temperature: 59.5 F (15.3 C)
Dew Point: 59.5 F (15.3 C)
Relative Humidity: 100%
Pressure (altimeter): 29.81 in. Hg (1009 hPa)
ob: KLFI 210156Z 36014G22KT 10SM OVC010 15/15 A2981 RMK AO2A PK WND 33026/28 CIG 009 RWY26 SLP101 T01530153
cycle: 2

Station Type Date Time Source
KLFI TAF 2019/10/19 01:07 UTC NOAA

TAF KLFI 190100Z 1901/2007 33009KT 9999 FEW050 QNH3003INS
BECMG 1922/1923 11006KT 9999 FEW050 QNH3001INS TX18/1919Z TN08/1910Z LAST NO
AMDS AFT 1909 NEXT 2109

Example: see airport list